SWA3894 KPHX-KSMF
Flight info
| Callsign | SWA3894 |
|---|---|
| Flight time | 1h 37m |
| Altitude | 40000 |
| Route | ZEPER2 RRSTA DOVEE BTY KENNO DONNR SLMMR5 |
| Aircraft | B737/M-SADE2E3GIJ4RWZ/LB1D1 |
Departure
| Time | 2026-05-07 23:06 |
|---|---|
| Airport | Phoenix Sky Harbor International Airport (KPHX) |
Arrival
| Time | 2026-05-08 00:43 |
|---|---|
| Airport | Sacramento International Airport (KSMF) |
| Time | Latitude | Longitude | Altitude | Speed | Heading |
|---|---|---|---|---|---|
| 2026-05-07 22:46 | 33.43441 | -111.99879 | 1123 ft | 0 kts | 272° |
| 2026-05-07 23:00 | 33.43440 | -111.99862 | 1118 ft | 4 kts | 272° |
| 2026-05-07 23:00 | 33.43439 | -111.99837 | 1119 ft | 4 kts | 272° |
| 2026-05-07 23:00 | 33.43439 | -111.99814 | 1123 ft | 0 kts | 272° |
| 2026-05-07 23:02 | 33.43439 | -111.99815 | 1123 ft | 0 kts | 271° |
| 2026-05-07 23:02 | 33.43433 | -111.99825 | 1115 ft | 3 kts | 230° |
| 2026-05-07 23:03 | 33.43397 | -111.99829 | 1120 ft | 7 kts | 177° |
| 2026-05-07 23:03 | 33.43337 | -111.99825 | 1118 ft | 10 kts | 178° |
| 2026-05-07 23:03 | 33.43285 | -111.99772 | 1116 ft | 12 kts | 102° |
| 2026-05-07 23:03 | 33.43283 | -111.99668 | 1123 ft | 14 kts | 88° |
| 2026-05-07 23:04 | 33.43283 | -111.99547 | 1123 ft | 15 kts | 91° |
| 2026-05-07 23:04 | 33.43282 | -111.99416 | 1118 ft | 15 kts | 90° |
| 2026-05-07 23:04 | 33.43222 | -111.99344 | 1118 ft | 13 kts | 173° |
| 2026-05-07 23:04 | 33.43132 | -111.99346 | 1117 ft | 13 kts | 200° |
| 2026-05-07 23:05 | 33.43103 | -111.99453 | 1122 ft | 24 kts | 270° |
| 2026-05-07 23:05 | 33.43104 | -111.99942 | 1123 ft | 94 kts | 270° |
| 2026-05-07 23:05 | 33.43105 | -112.00968 | 1125 ft | 150 kts | 271° |
| 2026-05-07 23:05 | 33.43116 | -112.02361 | 1358 ft | 179 kts | 271° |
| 2026-05-07 23:06 | 33.43101 | -112.03878 | 2040 ft | 184 kts | 271° |
| 2026-05-07 23:06 | 33.43160 | -112.05379 | 2861 ft | 176 kts | 272° |
| 2026-05-07 23:06 | 33.43211 | -112.06900 | 3408 ft | 196 kts | 271° |
| 2026-05-07 23:06 | 33.43245 | -112.08653 | 3652 ft | 224 kts | 271° |
| 2026-05-07 23:07 | 33.43287 | -112.10581 | 3970 ft | 244 kts | 271° |
| 2026-05-07 23:07 | 33.43340 | -112.12641 | 4739 ft | 247 kts | 271° |
| 2026-05-07 23:07 | 33.43396 | -112.14695 | 5651 ft | 248 kts | 272° |
| 2026-05-07 23:07 | 33.43556 | -112.16769 | 6450 ft | 254 kts | 287° |
| 2026-05-07 23:08 | 33.44477 | -112.18569 | 7262 ft | 258 kts | 318° |
| 2026-05-07 23:08 | 33.46031 | -112.19576 | 8248 ft | 258 kts | 346° |
| 2026-05-07 23:08 | 33.47794 | -112.19745 | 9233 ft | 257 kts | 1° |
| 2026-05-07 23:08 | 33.49574 | -112.19703 | 10228 ft | 258 kts | 2° |
| 2026-05-07 23:09 | 33.51389 | -112.19653 | 11107 ft | 261 kts | 2° |
| 2026-05-07 23:09 | 33.53207 | -112.19613 | 12078 ft | 262 kts | 1° |
| 2026-05-07 23:09 | 33.55100 | -112.19721 | 12530 ft | 287 kts | 357° |
| 2026-05-07 23:09 | 33.57189 | -112.19926 | 12787 ft | 314 kts | 357° |
| 2026-05-07 23:10 | 33.59404 | -112.20144 | 13519 ft | 323 kts | 357° |
| 2026-05-07 23:10 | 33.61653 | -112.20356 | 14412 ft | 325 kts | 358° |
| 2026-05-07 23:10 | 33.63920 | -112.20718 | 15264 ft | 334 kts | 351° |
| 2026-05-07 23:10 | 33.66201 | -112.21400 | 16074 ft | 341 kts | 348° |
| 2026-05-07 23:11 | 33.68502 | -112.22186 | 16862 ft | 348 kts | 347° |
| 2026-05-07 23:11 | 33.70824 | -112.22995 | 17967 ft | 345 kts | 348° |
| 2026-05-07 23:11 | 33.73142 | -112.23789 | 18707 ft | 351 kts | 348° |
| 2026-05-07 23:11 | 33.75526 | -112.24586 | 19335 ft | 358 kts | 349° |
| 2026-05-07 23:12 | 33.77944 | -112.25382 | 20097 ft | 362 kts | 349° |
| 2026-05-07 23:12 | 33.80388 | -112.26180 | 20864 ft | 366 kts | 349° |
| 2026-05-07 23:12 | 33.82862 | -112.26982 | 21580 ft | 371 kts | 349° |
| 2026-05-07 23:12 | 33.85370 | -112.27794 | 22292 ft | 376 kts | 349° |
| 2026-05-07 23:13 | 33.87909 | -112.28616 | 23004 ft | 380 kts | 349° |
| 2026-05-07 23:13 | 33.90481 | -112.29449 | 23664 ft | 385 kts | 349° |
| 2026-05-07 23:13 | 33.93079 | -112.30291 | 24281 ft | 388 kts | 348° |
| 2026-05-07 23:13 | 33.95685 | -112.31137 | 24932 ft | 390 kts | 348° |
| 2026-05-07 23:14 | 33.98319 | -112.31992 | 25578 ft | 392 kts | 348° |
| 2026-05-07 23:14 | 34.00963 | -112.32852 | 26172 ft | 396 kts | 348° |
| 2026-05-07 23:14 | 34.03526 | -112.34166 | 26697 ft | 409 kts | 331° |
| 2026-05-07 23:14 | 34.05768 | -112.36237 | 27317 ft | 413 kts | 325° |
| 2026-05-07 23:15 | 34.07980 | -112.38474 | 27930 ft | 416 kts | 324° |
| 2026-05-07 23:15 | 34.10217 | -112.40780 | 28503 ft | 419 kts | 324° |
| 2026-05-07 23:15 | 34.12425 | -112.43057 | 29044 ft | 422 kts | 324° |
| 2026-05-07 23:15 | 34.14683 | -112.45370 | 29526 ft | 426 kts | 324° |
| 2026-05-07 23:16 | 34.16951 | -112.47676 | 30000 ft | 429 kts | 324° |
| 2026-05-07 23:16 | 34.19222 | -112.49976 | 30360 ft | 433 kts | 324° |
| 2026-05-07 23:16 | 34.21542 | -112.52320 | 30789 ft | 435 kts | 324° |
| 2026-05-07 23:16 | 34.23866 | -112.54667 | 31240 ft | 437 kts | 324° |
| 2026-05-07 23:17 | 34.26205 | -112.57028 | 31627 ft | 439 kts | 324° |
| 2026-05-07 23:17 | 34.28558 | -112.59406 | 31988 ft | 442 kts | 324° |
| 2026-05-07 23:17 | 34.30922 | -112.61797 | 32393 ft | 443 kts | 324° |
| 2026-05-07 23:17 | 34.33283 | -112.64187 | 32897 ft | 442 kts | 324° |
| 2026-05-07 23:18 | 34.35626 | -112.66563 | 33483 ft | 438 kts | 324° |
| 2026-05-07 23:18 | 34.37956 | -112.68927 | 34001 ft | 436 kts | 324° |
| 2026-05-07 23:18 | 34.40279 | -112.71284 | 34324 ft | 437 kts | 324° |
| 2026-05-07 23:18 | 34.42613 | -112.73653 | 34586 ft | 439 kts | 324° |
| 2026-05-07 23:19 | 34.44949 | -112.76026 | 35012 ft | 436 kts | 324° |
| 2026-05-07 23:19 | 34.47264 | -112.78381 | 35470 ft | 433 kts | 323° |
| 2026-05-07 23:19 | 34.49561 | -112.80719 | 35853 ft | 432 kts | 323° |
| 2026-05-07 23:19 | 34.51861 | -112.83061 | 36154 ft | 432 kts | 323° |
| 2026-05-07 23:20 | 34.54163 | -112.85406 | 36461 ft | 432 kts | 323° |
| 2026-05-07 23:20 | 34.56465 | -112.87753 | 36783 ft | 431 kts | 323° |
| 2026-05-07 23:20 | 34.57235 | -112.88540 | 36908 ft | 431 kts | 323° |
| 2026-05-07 23:20 | 34.61040 | -112.92437 | 37482 ft | 429 kts | 323° |
| 2026-05-07 23:21 | 34.63320 | -112.94778 | 37816 ft | 429 kts | 323° |
| 2026-05-07 23:21 | 34.65597 | -112.97117 | 38142 ft | 428 kts | 322° |
| 2026-05-07 23:21 | 34.67864 | -112.99448 | 38470 ft | 427 kts | 322° |
| 2026-05-07 23:21 | 34.70134 | -113.01782 | 38727 ft | 426 kts | 322° |
| 2026-05-07 23:22 | 34.72396 | -113.04109 | 38934 ft | 427 kts | 322° |
| 2026-05-07 23:22 | 34.74627 | -113.06491 | 39130 ft | 429 kts | 316° |
| 2026-05-07 23:22 | 34.76371 | -113.09468 | 39240 ft | 437 kts | 300° |
| 2026-05-07 23:22 | 34.77746 | -113.12751 | 39483 ft | 436 kts | 299° |
| 2026-05-07 23:23 | 34.79073 | -113.16059 | 39717 ft | 435 kts | 298° |
| 2026-05-07 23:23 | 34.80392 | -113.19377 | 39891 ft | 436 kts | 298° |
| 2026-05-07 23:23 | 34.81722 | -113.22709 | 39890 ft | 440 kts | 299° |
| 2026-05-07 23:24 | 34.84404 | -113.29345 | 39888 ft | 438 kts | 299° |
| 2026-05-07 23:24 | 34.87097 | -113.35944 | 39884 ft | 432 kts | 300° |
| 2026-05-07 23:25 | 34.89771 | -113.42482 | 39889 ft | 430 kts | 299° |
| 2026-05-07 23:25 | 34.92433 | -113.49000 | 39888 ft | 429 kts | 299° |
| 2026-05-07 23:26 | 34.95082 | -113.55500 | 39880 ft | 428 kts | 299° |
| 2026-05-07 23:26 | 34.97726 | -113.62002 | 39888 ft | 429 kts | 299° |
| 2026-05-07 23:27 | 35.01702 | -113.71803 | 39880 ft | 431 kts | 299° |
| 2026-05-07 23:27 | 35.04358 | -113.78369 | 39872 ft | 432 kts | 299° |
| 2026-05-07 23:28 | 35.07017 | -113.84954 | 39888 ft | 433 kts | 299° |
| 2026-05-07 23:28 | 35.09683 | -113.91573 | 39878 ft | 435 kts | 299° |
| 2026-05-07 23:29 | 35.11921 | -113.97136 | 39874 ft | 436 kts | 299° |
| 2026-05-07 23:29 | 35.14591 | -114.03787 | 39873 ft | 437 kts | 299° |
| 2026-05-07 23:30 | 35.15923 | -114.07112 | 39977 ft | 437 kts | 299° |
| 2026-05-07 23:30 | 35.17256 | -114.10440 | 39972 ft | 437 kts | 299° |
| 2026-05-07 23:30 | 35.19922 | -114.17108 | 39953 ft | 436 kts | 299° |
| 2026-05-07 23:31 | 35.22579 | -114.23769 | 39940 ft | 435 kts | 299° |
| 2026-05-07 23:31 | 35.25231 | -114.30428 | 39896 ft | 435 kts | 298° |
| 2026-05-07 23:32 | 35.27871 | -114.37072 | 39890 ft | 434 kts | 298° |
| 2026-05-07 23:32 | 35.30502 | -114.43705 | 39873 ft | 433 kts | 298° |
| 2026-05-07 23:33 | 35.33127 | -114.50339 | 39893 ft | 432 kts | 298° |
| 2026-05-07 23:33 | 35.35742 | -114.56960 | 39890 ft | 432 kts | 298° |
| 2026-05-07 23:34 | 35.38350 | -114.63575 | 39902 ft | 431 kts | 298° |
| 2026-05-07 23:34 | 35.40952 | -114.70189 | 39906 ft | 431 kts | 298° |
| 2026-05-07 23:35 | 35.43551 | -114.76810 | 39914 ft | 431 kts | 298° |
| 2026-05-07 23:35 | 35.46751 | -114.82940 | 39928 ft | 425 kts | 313° |
| 2026-05-07 23:36 | 35.50658 | -114.88373 | 39926 ft | 425 kts | 314° |
| 2026-05-07 23:36 | 35.54592 | -114.93783 | 39933 ft | 425 kts | 314° |
| 2026-05-07 23:37 | 35.58506 | -114.99234 | 39937 ft | 425 kts | 314° |
| 2026-05-07 23:37 | 35.62399 | -115.04704 | 39939 ft | 426 kts | 313° |
| 2026-05-07 23:38 | 35.66290 | -115.10192 | 39952 ft | 426 kts | 313° |
| 2026-05-07 23:38 | 35.70182 | -115.15691 | 39954 ft | 426 kts | 313° |
| 2026-05-07 23:39 | 35.74072 | -115.21196 | 39966 ft | 426 kts | 313° |
| 2026-05-07 23:39 | 35.77961 | -115.26709 | 39964 ft | 426 kts | 313° |
| 2026-05-07 23:40 | 35.81844 | -115.32221 | 39971 ft | 426 kts | 313° |
| 2026-05-07 23:40 | 35.85717 | -115.37729 | 39967 ft | 426 kts | 313° |
| 2026-05-07 23:41 | 35.89590 | -115.43244 | 39983 ft | 425 kts | 313° |
| 2026-05-07 23:41 | 35.93460 | -115.48766 | 39972 ft | 425 kts | 313° |
| 2026-05-07 23:42 | 35.97322 | -115.54283 | 39968 ft | 424 kts | 313° |
| 2026-05-07 23:42 | 36.01146 | -115.59755 | 39986 ft | 424 kts | 313° |
| 2026-05-07 23:43 | 36.04997 | -115.65276 | 39965 ft | 424 kts | 313° |
| 2026-05-07 23:43 | 36.08847 | -115.70805 | 39977 ft | 424 kts | 313° |
| 2026-05-07 23:44 | 36.12694 | -115.76338 | 39976 ft | 424 kts | 313° |
| 2026-05-07 23:44 | 36.16538 | -115.81875 | 39972 ft | 424 kts | 313° |
| 2026-05-07 23:45 | 36.20379 | -115.87418 | 39963 ft | 424 kts | 313° |
| 2026-05-07 23:45 | 36.24211 | -115.92957 | 39952 ft | 423 kts | 313° |
| 2026-05-07 23:46 | 36.28037 | -115.98496 | 39936 ft | 423 kts | 312° |
| 2026-05-07 23:46 | 36.31887 | -116.04078 | 39916 ft | 423 kts | 312° |
| 2026-05-07 23:47 | 36.35703 | -116.09622 | 39913 ft | 423 kts | 312° |
| 2026-05-07 23:47 | 36.39523 | -116.15180 | 39895 ft | 423 kts | 312° |
| 2026-05-07 23:48 | 36.43314 | -116.20704 | 39886 ft | 423 kts | 312° |
| 2026-05-07 23:48 | 36.47133 | -116.26279 | 39869 ft | 423 kts | 312° |
| 2026-05-07 23:49 | 36.50939 | -116.31844 | 39879 ft | 423 kts | 312° |
| 2026-05-07 23:49 | 36.54744 | -116.37418 | 39886 ft | 422 kts | 312° |
| 2026-05-07 23:50 | 36.58538 | -116.42984 | 39872 ft | 422 kts | 312° |
| 2026-05-07 23:50 | 36.62333 | -116.48561 | 39880 ft | 422 kts | 312° |
| 2026-05-07 23:51 | 36.66119 | -116.54134 | 39880 ft | 421 kts | 311° |
| 2026-05-07 23:51 | 36.69902 | -116.59713 | 39876 ft | 421 kts | 311° |
| 2026-05-07 23:52 | 36.73678 | -116.65290 | 39882 ft | 421 kts | 311° |
| 2026-05-07 23:52 | 36.77449 | -116.70869 | 39879 ft | 421 kts | 311° |
| 2026-05-07 23:53 | 36.81323 | -116.76331 | 39877 ft | 419 kts | 317° |
| 2026-05-07 23:53 | 36.85651 | -116.81205 | 39878 ft | 419 kts | 320° |
| 2026-05-07 23:54 | 36.90031 | -116.86004 | 39893 ft | 419 kts | 320° |
| 2026-05-07 23:54 | 36.94382 | -116.90845 | 39889 ft | 419 kts | 319° |
| 2026-05-07 23:55 | 36.98712 | -116.95715 | 39900 ft | 419 kts | 319° |
| 2026-05-07 23:55 | 37.03017 | -117.00577 | 39909 ft | 419 kts | 319° |
| 2026-05-07 23:56 | 37.07374 | -117.05506 | 39914 ft | 420 kts | 319° |
| 2026-05-07 23:56 | 37.11711 | -117.10420 | 39911 ft | 420 kts | 319° |
| 2026-05-07 23:57 | 37.16045 | -117.15337 | 39924 ft | 421 kts | 319° |
| 2026-05-07 23:57 | 37.20383 | -117.20267 | 39923 ft | 421 kts | 318° |
| 2026-05-07 23:58 | 37.24689 | -117.25169 | 39926 ft | 421 kts | 318° |
| 2026-05-07 23:58 | 37.29019 | -117.30107 | 39935 ft | 421 kts | 317° |
| 2026-05-07 23:59 | 37.32965 | -117.35539 | 39926 ft | 421 kts | 310° |
| 2026-05-07 23:59 | 37.36649 | -117.41273 | 39924 ft | 421 kts | 309° |
| 2026-05-08 00:00 | 37.40335 | -117.46997 | 39931 ft | 421 kts | 310° |
| 2026-05-08 00:00 | 37.44046 | -117.52694 | 39918 ft | 421 kts | 310° |
| 2026-05-08 00:01 | 37.47762 | -117.58380 | 39919 ft | 420 kts | 310° |
| 2026-05-08 00:01 | 37.51474 | -117.64064 | 39923 ft | 421 kts | 310° |
| 2026-05-08 00:02 | 37.55185 | -117.69759 | 39921 ft | 421 kts | 310° |
| 2026-05-08 00:02 | 37.58901 | -117.75471 | 39917 ft | 421 kts | 310° |
| 2026-05-08 00:03 | 37.62609 | -117.81183 | 39910 ft | 421 kts | 310° |
| 2026-05-08 00:03 | 37.66317 | -117.86905 | 39916 ft | 421 kts | 309° |
| 2026-05-08 00:04 | 37.70023 | -117.92633 | 39919 ft | 421 kts | 309° |
| 2026-05-08 00:04 | 37.73681 | -117.98407 | 39922 ft | 421 kts | 307° |
| 2026-05-08 00:05 | 37.77103 | -118.04409 | 39924 ft | 421 kts | 306° |
| 2026-05-08 00:05 | 37.80475 | -118.10459 | 39925 ft | 420 kts | 306° |
| 2026-05-08 00:06 | 37.83856 | -118.16486 | 39932 ft | 420 kts | 306° |
| 2026-05-08 00:06 | 37.87248 | -118.22502 | 39939 ft | 419 kts | 306° |
| 2026-05-08 00:07 | 37.90615 | -118.28470 | 39938 ft | 419 kts | 306° |
| 2026-05-08 00:07 | 37.93998 | -118.34474 | 39952 ft | 419 kts | 306° |
| 2026-05-08 00:08 | 37.97380 | -118.40486 | 39952 ft | 418 kts | 305° |
| 2026-05-08 00:08 | 38.00751 | -118.46492 | 39962 ft | 418 kts | 305° |
| 2026-05-08 00:09 | 38.04113 | -118.52492 | 39959 ft | 417 kts | 305° |
| 2026-05-08 00:09 | 38.07468 | -118.58491 | 39965 ft | 417 kts | 305° |
| 2026-05-08 00:10 | 38.10820 | -118.64495 | 39969 ft | 416 kts | 305° |
| 2026-05-08 00:10 | 38.14163 | -118.70495 | 39973 ft | 416 kts | 305° |
| 2026-05-08 00:11 | 38.17503 | -118.76500 | 39975 ft | 416 kts | 304° |
| 2026-05-08 00:11 | 38.20839 | -118.82509 | 39986 ft | 416 kts | 304° |
| 2026-05-08 00:12 | 38.24172 | -118.88524 | 39982 ft | 417 kts | 304° |
| 2026-05-08 00:12 | 38.26945 | -118.93536 | 39998 ft | 417 kts | 304° |
| 2026-05-08 00:13 | 38.30280 | -118.99575 | 39989 ft | 417 kts | 304° |
| 2026-05-08 00:13 | 38.33611 | -119.05617 | 40008 ft | 417 kts | 304° |
| 2026-05-08 00:14 | 38.36954 | -119.11691 | 39532 ft | 422 kts | 304° |
| 2026-05-08 00:14 | 38.38635 | -119.14752 | 39027 ft | 422 kts | 304° |
| 2026-05-08 00:14 | 38.40313 | -119.17807 | 38451 ft | 421 kts | 303° |
| 2026-05-08 00:15 | 38.41962 | -119.20815 | 37809 ft | 420 kts | 304° |
| 2026-05-08 00:15 | 38.43630 | -119.23859 | 37256 ft | 417 kts | 304° |
| 2026-05-08 00:15 | 38.45280 | -119.26872 | 36856 ft | 412 kts | 304° |
| 2026-05-08 00:15 | 38.46909 | -119.29851 | 36442 ft | 407 kts | 304° |
| 2026-05-08 00:16 | 38.48511 | -119.32783 | 36034 ft | 403 kts | 304° |
| 2026-05-08 00:16 | 38.50108 | -119.35708 | 35587 ft | 400 kts | 304° |
| 2026-05-08 00:16 | 38.51694 | -119.38617 | 35180 ft | 398 kts | 305° |
| 2026-05-08 00:16 | 38.53269 | -119.41506 | 34762 ft | 395 kts | 305° |
| 2026-05-08 00:17 | 38.54833 | -119.44379 | 34339 ft | 393 kts | 305° |
| 2026-05-08 00:17 | 38.56385 | -119.47233 | 33915 ft | 390 kts | 306° |
| 2026-05-08 00:17 | 38.57930 | -119.50075 | 33458 ft | 388 kts | 306° |
| 2026-05-08 00:17 | 38.59464 | -119.52899 | 33018 ft | 386 kts | 305° |
| 2026-05-08 00:18 | 38.60984 | -119.55701 | 32587 ft | 383 kts | 305° |
| 2026-05-08 00:18 | 38.62482 | -119.58464 | 32193 ft | 380 kts | 306° |
| 2026-05-08 00:18 | 38.63979 | -119.61228 | 31822 ft | 377 kts | 306° |
| 2026-05-08 00:18 | 38.65472 | -119.63987 | 31415 ft | 375 kts | 306° |
| 2026-05-08 00:19 | 38.66951 | -119.66721 | 31024 ft | 373 kts | 306° |
| 2026-05-08 00:19 | 38.68424 | -119.69448 | 30679 ft | 371 kts | 306° |
| 2026-05-08 00:19 | 38.69888 | -119.72160 | 30350 ft | 369 kts | 306° |
| 2026-05-08 00:19 | 38.71274 | -119.74730 | 29956 ft | 367 kts | 306° |
| 2026-05-08 00:20 | 38.72721 | -119.77414 | 29526 ft | 365 kts | 306° |
| 2026-05-08 00:20 | 38.74174 | -119.80112 | 29119 ft | 361 kts | 306° |
| 2026-05-08 00:20 | 38.75571 | -119.82709 | 28724 ft | 358 kts | 306° |
| 2026-05-08 00:20 | 38.76978 | -119.85326 | 28353 ft | 354 kts | 306° |
| 2026-05-08 00:21 | 38.78370 | -119.87917 | 27939 ft | 352 kts | 305° |
| 2026-05-08 00:21 | 38.79749 | -119.90487 | 27548 ft | 349 kts | 305° |
| 2026-05-08 00:21 | 38.81120 | -119.93043 | 27168 ft | 347 kts | 305° |
| 2026-05-08 00:21 | 38.82480 | -119.95581 | 26768 ft | 345 kts | 305° |
| 2026-05-08 00:22 | 38.83832 | -119.98105 | 26378 ft | 342 kts | 305° |
| 2026-05-08 00:22 | 38.85177 | -120.00618 | 25870 ft | 341 kts | 305° |
| 2026-05-08 00:22 | 38.86512 | -120.03115 | 25479 ft | 339 kts | 305° |
| 2026-05-08 00:22 | 38.87843 | -120.05607 | 25084 ft | 338 kts | 305° |
| 2026-05-08 00:23 | 38.89166 | -120.08086 | 24697 ft | 336 kts | 305° |
| 2026-05-08 00:23 | 38.90482 | -120.10553 | 24311 ft | 334 kts | 305° |
| 2026-05-08 00:23 | 38.91794 | -120.13014 | 23873 ft | 334 kts | 304° |
| 2026-05-08 00:23 | 38.93100 | -120.15466 | 23442 ft | 332 kts | 304° |
| 2026-05-08 00:24 | 38.94400 | -120.17909 | 22990 ft | 331 kts | 304° |
| 2026-05-08 00:24 | 38.95696 | -120.20345 | 22564 ft | 329 kts | 304° |
| 2026-05-08 00:24 | 38.96980 | -120.22761 | 22153 ft | 326 kts | 304° |
| 2026-05-08 00:24 | 38.98254 | -120.25160 | 21748 ft | 323 kts | 304° |
| 2026-05-08 00:25 | 38.99453 | -120.27587 | 21342 ft | 321 kts | 295° |
| 2026-05-08 00:25 | 39.00134 | -120.30303 | 20955 ft | 319 kts | 285° |
| 2026-05-08 00:25 | 39.00658 | -120.33071 | 20548 ft | 318 kts | 284° |
| 2026-05-08 00:25 | 39.01161 | -120.35834 | 20152 ft | 317 kts | 284° |
| 2026-05-08 00:26 | 39.01664 | -120.38585 | 19750 ft | 315 kts | 284° |
| 2026-05-08 00:26 | 39.02165 | -120.41284 | 19347 ft | 314 kts | 284° |
| 2026-05-08 00:26 | 39.02678 | -120.44011 | 18962 ft | 314 kts | 284° |
| 2026-05-08 00:26 | 39.03203 | -120.46779 | 18559 ft | 314 kts | 284° |
| 2026-05-08 00:27 | 39.03721 | -120.49504 | 18116 ft | 314 kts | 284° |
| 2026-05-08 00:27 | 39.04233 | -120.52189 | 17679 ft | 312 kts | 284° |
| 2026-05-08 00:27 | 39.04750 | -120.54897 | 17284 ft | 310 kts | 284° |
| 2026-05-08 00:27 | 39.05261 | -120.57579 | 16883 ft | 308 kts | 284° |
| 2026-05-08 00:28 | 39.05768 | -120.60241 | 16485 ft | 305 kts | 284° |
| 2026-05-08 00:28 | 39.06269 | -120.62876 | 16080 ft | 304 kts | 283° |
| 2026-05-08 00:28 | 39.06769 | -120.65507 | 15687 ft | 302 kts | 283° |
| 2026-05-08 00:28 | 39.07205 | -120.68141 | 15284 ft | 301 kts | 274° |
| 2026-05-08 00:29 | 39.07006 | -120.70806 | 14885 ft | 300 kts | 256° |
| 2026-05-08 00:29 | 39.06391 | -120.73358 | 14502 ft | 298 kts | 252° |
| 2026-05-08 00:29 | 39.05724 | -120.75862 | 14106 ft | 296 kts | 252° |
| 2026-05-08 00:29 | 39.05050 | -120.78357 | 13677 ft | 294 kts | 252° |
| 2026-05-08 00:30 | 39.04385 | -120.80839 | 13237 ft | 292 kts | 252° |
| 2026-05-08 00:30 | 39.03729 | -120.83308 | 12826 ft | 291 kts | 252° |
| 2026-05-08 00:30 | 39.03083 | -120.85756 | 12418 ft | 289 kts | 252° |
| 2026-05-08 00:30 | 39.02442 | -120.88194 | 12017 ft | 287 kts | 252° |
| 2026-05-08 00:31 | 39.01809 | -120.90612 | 11617 ft | 284 kts | 252° |
| 2026-05-08 00:31 | 39.01180 | -120.93016 | 11224 ft | 283 kts | 252° |
| 2026-05-08 00:31 | 39.00555 | -120.95402 | 10856 ft | 281 kts | 252° |
| 2026-05-08 00:31 | 38.99934 | -120.97775 | 10470 ft | 279 kts | 252° |
| 2026-05-08 00:32 | 38.99316 | -121.00137 | 10175 ft | 275 kts | 252° |
| 2026-05-08 00:32 | 38.98714 | -121.02437 | 9846 ft | 272 kts | 252° |
| 2026-05-08 00:32 | 38.98114 | -121.04722 | 9490 ft | 270 kts | 252° |
| 2026-05-08 00:32 | 38.97516 | -121.06998 | 9123 ft | 268 kts | 251° |
| 2026-05-08 00:33 | 38.96922 | -121.09255 | 8773 ft | 266 kts | 251° |
| 2026-05-08 00:33 | 38.96329 | -121.11502 | 8418 ft | 265 kts | 251° |
| 2026-05-08 00:33 | 38.95748 | -121.13705 | 8076 ft | 263 kts | 251° |
| 2026-05-08 00:33 | 38.95161 | -121.15927 | 7726 ft | 263 kts | 251° |
| 2026-05-08 00:34 | 38.94575 | -121.18145 | 7378 ft | 262 kts | 251° |
| 2026-05-08 00:34 | 38.93990 | -121.20358 | 7024 ft | 261 kts | 251° |
| 2026-05-08 00:34 | 38.93405 | -121.22566 | 6623 ft | 261 kts | 251° |
| 2026-05-08 00:34 | 38.92823 | -121.24766 | 6275 ft | 260 kts | 251° |
| 2026-05-08 00:35 | 38.92239 | -121.26967 | 5909 ft | 260 kts | 251° |
| 2026-05-08 00:35 | 38.91660 | -121.29154 | 5548 ft | 259 kts | 251° |
| 2026-05-08 00:35 | 38.91081 | -121.31335 | 5198 ft | 257 kts | 251° |
| 2026-05-08 00:35 | 38.90504 | -121.33507 | 4850 ft | 257 kts | 251° |
| 2026-05-08 00:36 | 38.89928 | -121.35669 | 4494 ft | 256 kts | 251° |
| 2026-05-08 00:36 | 38.89355 | -121.37823 | 4147 ft | 254 kts | 251° |
| 2026-05-08 00:36 | 38.88773 | -121.39964 | 3927 ft | 254 kts | 250° |
| 2026-05-08 00:36 | 38.88170 | -121.42090 | 3717 ft | 252 kts | 249° |
| 2026-05-08 00:37 | 38.87571 | -121.44189 | 3558 ft | 247 kts | 250° |
| 2026-05-08 00:37 | 38.87000 | -121.46191 | 3364 ft | 232 kts | 250° |
| 2026-05-08 00:37 | 38.86462 | -121.48079 | 3196 ft | 221 kts | 249° |
| 2026-05-08 00:38 | 38.85417 | -121.51752 | 2852 ft | 218 kts | 249° |
| 2026-05-08 00:38 | 38.84910 | -121.53533 | 2696 ft | 204 kts | 250° |
| 2026-05-08 00:38 | 38.84439 | -121.55184 | 2527 ft | 191 kts | 249° |
| 2026-05-08 00:38 | 38.84001 | -121.56719 | 2369 ft | 177 kts | 249° |
| 2026-05-08 00:39 | 38.83580 | -121.58197 | 2255 ft | 176 kts | 249° |
| 2026-05-08 00:39 | 38.82924 | -121.59470 | 2105 ft | 174 kts | 211° |
| 2026-05-08 00:39 | 38.81767 | -121.59820 | 2044 ft | 174 kts | 186° |
| 2026-05-08 00:39 | 38.80557 | -121.59929 | 1910 ft | 174 kts | 182° |
| 2026-05-08 00:40 | 38.79351 | -121.59967 | 1686 ft | 170 kts | 181° |
| 2026-05-08 00:40 | 38.78248 | -121.59983 | 1489 ft | 148 kts | 181° |
| 2026-05-08 00:40 | 38.77272 | -121.59999 | 1291 ft | 133 kts | 181° |
| 2026-05-08 00:40 | 38.76373 | -121.60014 | 1120 ft | 127 kts | 180° |
| 2026-05-08 00:41 | 38.75485 | -121.60029 | 976 ft | 126 kts | 181° |
| 2026-05-08 00:41 | 38.74593 | -121.60045 | 799 ft | 131 kts | 181° |
| 2026-05-08 00:41 | 38.73669 | -121.60060 | 641 ft | 133 kts | 181° |
| 2026-05-08 00:41 | 38.72750 | -121.60074 | 470 ft | 131 kts | 182° |
| 2026-05-08 00:42 | 38.71838 | -121.60093 | 257 ft | 132 kts | 181° |
| 2026-05-08 00:42 | 38.70923 | -121.60106 | 94 ft | 132 kts | 181° |
| 2026-05-08 00:42 | 38.70050 | -121.60121 | 25 ft | 112 kts | 181° |
| 2026-05-08 00:42 | 38.69434 | -121.60132 | 21 ft | 68 kts | 181° |
| 2026-05-08 00:43 | 38.69129 | -121.60137 | 26 ft | 23 kts | 179° |
| 2026-05-08 00:43 | 38.69057 | -121.60035 | 23 ft | 16 kts | 93° |
| 2026-05-08 00:43 | 38.69063 | -121.59903 | 22 ft | 13 kts | 62° |
| 2026-05-08 00:43 | 38.69127 | -121.59872 | 24 ft | 10 kts | 2° |
| 2026-05-08 00:44 | 38.69197 | -121.59872 | 22 ft | 10 kts | 355° |
| 2026-05-08 00:44 | 38.69269 | -121.59870 | 24 ft | 10 kts | 2° |
| 2026-05-08 00:44 | 38.69336 | -121.59867 | 22 ft | 10 kts | 2° |
| 2026-05-08 00:44 | 38.69400 | -121.59864 | 22 ft | 10 kts | 1° |
| 2026-05-08 00:45 | 38.69466 | -121.59863 | 22 ft | 9 kts | 0° |
| 2026-05-08 00:45 | 38.69530 | -121.59863 | 22 ft | 9 kts | 0° |
| 2026-05-08 00:45 | 38.69592 | -121.59862 | 24 ft | 9 kts | 0° |
| 2026-05-08 00:45 | 38.69653 | -121.59862 | 24 ft | 9 kts | 1° |
| 2026-05-08 00:46 | 38.69696 | -121.59819 | 24 ft | 8 kts | 71° |
| 2026-05-08 00:46 | 38.69698 | -121.59747 | 22 ft | 8 kts | 96° |
| 2026-05-08 00:46 | 38.69695 | -121.59676 | 22 ft | 8 kts | 91° |
| 2026-05-08 00:46 | 38.69695 | -121.59608 | 22 ft | 8 kts | 89° |
| 2026-05-08 00:47 | 38.69697 | -121.59542 | 22 ft | 7 kts | 88° |
| 2026-05-08 00:47 | 38.69689 | -121.59480 | 25 ft | 7 kts | 118° |
| 2026-05-08 00:47 | 38.69646 | -121.59462 | 25 ft | 6 kts | 180° |
| 2026-05-08 00:47 | 38.69628 | -121.59462 | 22 ft | 0 kts | 180° |